Erly, Pennsylvania
Current Conditions -  °F | °C
As of 11:15 AM on Wednesday 26 Nov 2014 (Local Time) from KCXY Reporting Station
Heavy Snow Heavy Snow  
Wind Chill: 33°   Ceiling: 500
Heat Index: 33°   Visibility: 0.25mi
Dew Point: 32°   Wind: 0mph
Humidity: 96%   Direction: NA
Pressure: 30.08"   Gusts: NA
Location:  40.3632°N, 77.2671°W
Report Text: KCXY 261615Z 00000KT 1/4SM R08/3000V3500FT +SN FG OVC005 01/00 A3008 RMK AO2 P0001 T00060000
Loading
Personal Weather Stations






























Interactive Weather Map New forecast layout! Learn more

10-Day Weather Forecast

Advertisements
Track Severe Weather on mobile